Главная страница
METAR-TAF:

METAR-TAF

Аэропорты :

Вадсё, Норвегия

широта: 70-04N, долгота: 029-51E, высота над уровнем моря: 3 м

Текущие метеонаблюдения

Эта сводка был подготовлена 8 часа и 33 минут назад, в 22:50 UTC
Ветер 9 Узел от западный
Температура -1°C
Влажность 80%
Давление 1029 hPa
Видимость 10 км и более
Нет облачности ниже 1500 м, и нет кучево-дождевой облачности

METAR: ENVD 282250Z 28009KT CAVOK M01/M04 Q1029

Время: 09:23 (07:23 UTC)

Прогноз

Эта сводка был подготовлена 14 часа и 23 минут назад, в 17:00 UTC
Прогноз действительный с 28-го 18 UTC до 28-го 23 UTC
Ветер 12 Узел от западный
Видимость 10 км и более
небольшая облачность на высоте 2000 фута

TAF: ENVD 281700Z 2818/2823 27012KT 9999 FEW020

Метеонаблюдения и прогнозы для более 4000 аэропортов (сводки METAR и TAF).

Имеющиеся станции представлены на карте желтыми и красными точками.

Чтобы увидеть название станции, наведите на нее мышь.

Затем щелкните, чтобы увидеть метеонаблюдения и метеопрогнозы.

Управление картой: чтобы увеличить масштаб, щелкните зеленые кнопки с черным крестиком; чтобы уменьшить масштаб, щелкните зеленую кнопку с тире; для просмотра соседних карт щелкайте зеленые стрелки.


METAR-TAF: